Weather History for Owatonna, MN

Change the Weather History Date:

Monday, February 18, 2013

  Actual Average Record
Temperature  
Mean Temperature 20 °F -  
Max Temperature 35 °F 30 °F 62 °F (1981)
Min Temperature 6 °F 16 °F -16 °F (2006)
Degree Days  
Heating Degree Days 44    
Moisture  
Dew Point 14 °F    
Average Humidity 67    
Maximum Humidity 81    
Minimum Humidity 56    
Precipitation  
Precipitation 0.00 in - - ()
Sea Level Pressure  
Sea Level Pressure 29.62 in    
Wind  
Wind Speed 20 mph (WSW)    
Max Wind Speed 31 mph    
Max Gust Speed 38 mph    
Visibility 8 miles    
Events Rain , Snow    
Averages and records for this station are not official NWS values.
T = Trace of Precipitation, MM = Missing Value Source: NWS Daily Summary

Daily Weather History Graph

Daily Weather History Graph

Search for Another Location

Airport:

Trip Planner

Search our weather history database for the weather conditions in past years. The results will help you decide how hot, cold, wet, or windy it might be!

Date:

Astronomy

Feb. 18, 2013 Rise Set
Actual Time 7:07 AM CST 5:47 PM CST
Civil Twilight 6:37 AM CST 6:16 PM CST
Nautical Twilight 6:04 AM CST 6:50 PM CST
Astronomical Twilight 5:30 AM CST 7:23 PM CST
Moon 11:27 AM CST (2/18) 1:53 AM CST (2/18)
Length of Visible Light 11h 38m
Length of Day
10h 39m
First Quarter, 58% of the Moon is Illuminated
Feb 18
First Quarter
Feb 25
Full
Mar 4
Last Quarter
Mar 11
New
Mar 19
First Quarter

Hourly Weather History & Observations

Time (CST) Temp. Windchill Dew Point Humidity Pressure Visibility Wind Dir Wind Speed Gust Speed Precip Events Conditions
12:13 AM 35.6 °F 23.7 °F 21.2 °F 56% 29.58 in 10.0 mi SSE 24.2 mph 35.7 mph N/A   Clear
12:33 AM 35.6 °F 23.2 °F 21.2 °F 56% 29.57 in 10.0 mi SSE 26.5 mph 31.1 mph N/A   Clear
12:53 AM 35.6 °F 24.0 °F 21.2 °F 56% 29.57 in 10.0 mi SSE 23.0 mph 31.1 mph N/A   Clear
1:13 AM 35.6 °F 23.2 °F 21.2 °F 56% 29.56 in 10.0 mi SSE 26.5 mph 31.1 mph N/A   Clear
1:33 AM 35.6 °F 23.7 °F 21.2 °F 56% 29.56 in 10.0 mi SSE 24.2 mph 29.9 mph N/A   Clear
1:54 AM 35.6 °F 23.7 °F 21.2 °F 56% 29.56 in 10.0 mi SSE 24.2 mph 31.1 mph N/A   Clear
2:13 AM 33.8 °F 23.5 °F 21.2 °F 60% 29.56 in 10.0 mi SSE 16.1 mph 27.6 mph N/A   Clear
2:34 AM 33.8 °F 22.2 °F 21.2 °F 60% 29.55 in 10.0 mi SSE 20.7 mph 27.6 mph N/A   Clear
2:53 AM 33.8 °F 22.5 °F 21.2 °F 60% 29.54 in 10.0 mi SSE 19.6 mph 25.3 mph N/A   Clear
3:13 AM 33.8 °F 22.8 °F 21.2 °F 60% 29.54 in 10.0 mi South 18.4 mph 24.2 mph N/A   Clear
3:33 AM 33.8 °F 22.8 °F 21.2 °F 60% 29.53 in 10.0 mi SSE 18.4 mph 24.2 mph N/A   Clear
3:53 AM 33.8 °F 23.2 °F 21.2 °F 60% 29.53 in 10.0 mi SSE 17.3 mph 20.7 mph N/A   Clear
4:13 AM 33.8 °F 23.5 °F 21.2 °F 60% 29.52 in 10.0 mi SSE 16.1 mph 20.7 mph N/A   Clear
4:34 AM 33.8 °F 24.8 °F 21.2 °F 60% 29.52 in 10.0 mi SSE 12.7 mph 21.9 mph N/A   Clear
4:53 AM 33.8 °F 25.8 °F 21.2 °F 60% 29.52 in 10.0 mi South 10.4 mph - N/A   Clear
5:13 AM 33.8 °F 24.8 °F 21.2 °F 60% 29.53 in 10.0 mi South 12.7 mph 18.4 mph N/A   Clear
5:33 AM 32.0 °F 22.1 °F 23.0 °F 69% 29.52 in 10.0 mi South 13.8 mph - N/A   Clear
5:53 AM 32.0 °F 22.1 °F 23.0 °F 69% 29.53 in 10.0 mi South 13.8 mph - N/A   Clear
6:13 AM 32.0 °F 24.2 °F 23.0 °F 69% 29.53 in 10.0 mi South 9.2 mph - N/A   Clear
6:33 AM 30.2 °F 21.3 °F 23.0 °F 75% 29.53 in 10.0 mi South 10.4 mph - N/A   Clear
6:53 AM 30.2 °F 22.6 °F 21.2 °F 69% 29.52 in 10.0 mi SSW 8.1 mph - N/A   Clear
7:13 AM 30.2 °F 21.3 °F 23.0 °F 75% 29.53 in 10.0 mi SSW 10.4 mph - N/A   Clear
7:33 AM 32.0 °F 24.8 °F 24.8 °F 75% 29.54 in 10.0 mi South 8.1 mph - N/A   Mostly Cloudy
8:33 AM 32.0 °F 24.8 °F 24.8 °F 75% 29.56 in 10.0 mi South 8.1 mph - N/A   Mostly Cloudy
8:53 AM 33.8 °F 27.7 °F 26.6 °F 75% 29.55 in 10.0 mi SW 6.9 mph - N/A   Mostly Cloudy
9:13 AM 35.6 °F 28.0 °F 26.6 °F 70% 29.54 in 10.0 mi West 10.4 mph - N/A   Mostly Cloudy
9:33 AM 35.6 °F 28.6 °F 26.6 °F 70% 29.55 in 10.0 mi West 9.2 mph - N/A   Overcast
9:53 AM 35.6 °F 29.2 °F 28.4 °F 75% 29.55 in 10.0 mi West 8.1 mph - N/A   Overcast
10:13 AM 35.6 °F 28.6 °F 28.4 °F 75% 29.56 in 7.0 mi West 9.2 mph - N/A   Overcast
10:33 AM 35.6 °F 28.0 °F 28.4 °F 75% 29.56 in 5.0 mi West 10.4 mph - N/A   Haze
10:53 AM 35.6 °F 25.2 °F 30.2 °F 81% 29.56 in 2.5 mi West 18.4 mph - N/A   Haze
11:14 AM 32.0 °F 20.1 °F 26.6 °F 80% 29.57 in 1.8 mi West 19.6 mph 26.5 mph N/A   Haze
11:33 AM 30.2 °F 16.5 °F 24.8 °F 80% 29.58 in 1.8 mi West 24.2 mph 31.1 mph N/A   Haze
11:53 AM 28.4 °F 14.1 °F 23.0 °F 80% 29.59 in 5.0 mi West 24.2 mph 31.1 mph N/A   Haze
12:13 PM 28.4 °F 14.7 °F 21.2 °F 74% 29.58 in 7.0 mi West 21.9 mph 27.6 mph N/A   Overcast
12:33 PM 28.4 °F 14.4 °F 19.4 °F 69% 29.59 in 10.0 mi WNW 23.0 mph 28.8 mph N/A   Overcast
12:53 PM 26.6 °F 11.4 °F 17.6 °F 69% 29.59 in 10.0 mi WNW 25.3 mph 32.2 mph N/A   Overcast
1:13 PM 26.6 °F 12.0 °F 17.6 °F 69% 29.59 in 10.0 mi West 23.0 mph 28.8 mph N/A   Overcast
1:33 PM 24.8 °F 10.3 °F 15.8 °F 69% 29.60 in 10.0 mi West 20.7 mph 31.1 mph N/A   Overcast
1:53 PM 23.0 °F 8.3 °F 14.0 °F 68% 29.61 in 10.0 mi WNW 19.6 mph 34.5 mph N/A   Overcast
2:14 PM 21.2 °F 4.2 °F 12.2 °F 68% 29.63 in 10.0 mi West 25.3 mph 33.4 mph N/A   Overcast
2:33 PM 21.2 °F 3.9 °F 10.4 °F 63% 29.64 in 10.0 mi WNW 26.5 mph 34.5 mph N/A   Overcast
2:53 PM 21.2 °F 3.0 °F 10.4 °F 63% 29.65 in 10.0 mi West 29.9 mph 35.7 mph N/A   Overcast
3:13 PM 19.4 °F 2.1 °F 10.4 °F 68% 29.65 in 7.0 mi West 24.2 mph 29.9 mph N/A Rain Light Freezing Rain
3:33 PM 19.4 °F 0.8 °F 8.6 °F 63% 29.66 in 10.0 mi WNW 28.8 mph 36.8 mph N/A   Mostly Cloudy
3:53 PM 17.6 °F -1.6 °F 8.6 °F 68% 29.67 in 7.0 mi West 28.8 mph 34.5 mph N/A Rain Light Freezing Rain
4:13 PM 17.6 °F -0.6 °F 8.6 °F 68% 29.68 in 4.0 mi West 25.3 mph 32.2 mph N/A Snow Light Snow
4:34 PM 15.8 °F -3.7 °F 6.8 °F 68% 29.68 in 10.0 mi WNW 27.6 mph 36.8 mph N/A   Overcast
4:53 PM 15.8 °F -4.7 °F 5.0 °F 62% 29.69 in 5.0 mi WNW 31.1 mph 38.0 mph N/A Snow Light Snow
5:14 PM 15.8 °F -4.4 °F 5.0 °F 62% 29.69 in 5.0 mi WNW 29.9 mph 35.7 mph N/A   Haze
5:33 PM 14.0 °F -6.8 °F 3.2 °F 62% 29.69 in 10.0 mi WNW 29.9 mph 38.0 mph N/A   Overcast
5:53 PM 14.0 °F -4.7 °F 5.0 °F 67% 29.70 in 7.0 mi West 23.0 mph 33.4 mph N/A Snow Light Snow
6:13 PM 12.2 °F -9.6 °F 3.2 °F 67% 29.71 in 10.0 mi West 31.1 mph 35.7 mph N/A   Overcast
6:33 PM 12.2 °F -8.2 °F 3.2 °F 67% 29.72 in 7.0 mi West 26.5 mph 32.2 mph N/A   Overcast
6:53 PM 12.2 °F -7.9 °F 1.4 °F 62% 29.73 in 10.0 mi West 25.3 mph 31.1 mph N/A   Overcast
7:13 PM 10.4 °F -8.6 °F 1.4 °F 67% 29.74 in 10.0 mi WNW 20.7 mph 32.2 mph N/A   Overcast
7:33 PM 10.4 °F -8.6 °F 1.4 °F 67% 29.74 in 10.0 mi West 20.7 mph 29.9 mph N/A   Overcast
7:53 PM 10.4 °F -9.9 °F -0.4 °F 62% 29.74 in 10.0 mi WNW 24.2 mph 29.9 mph N/A   Overcast
8:14 PM 10.4 °F -9.5 °F 1.4 °F 67% 29.74 in 5.0 mi WNW 23.0 mph 28.8 mph N/A   Haze
8:33 PM 10.4 °F -9.9 °F -0.4 °F 62% 29.74 in 5.0 mi WNW 24.2 mph 28.8 mph N/A Snow Light Snow
8:53 PM 8.6 °F -11.0 °F -0.4 °F 67% 29.75 in 5.0 mi WNW 20.7 mph 31.1 mph N/A Snow Light Snow
9:13 PM 8.6 °F -12.3 °F -0.4 °F 67% 29.75 in 3.0 mi WNW 24.2 mph - N/A Snow Light Snow
9:33 PM 8.6 °F -11.4 °F -0.4 °F 67% 29.76 in 3.0 mi WNW 21.9 mph 28.8 mph N/A Snow Light Snow
9:53 PM 8.6 °F -11.4 °F -0.4 °F 67% 29.76 in 1.5 mi WNW 21.9 mph 28.8 mph N/A Snow Light Snow
10:14 PM 8.6 °F -11.0 °F -0.4 °F 67% 29.76 in 1.5 mi WNW 20.7 mph 25.3 mph N/A Snow Light Snow
10:33 PM 8.6 °F -11.0 °F -0.4 °F 67% 29.76 in 2.0 mi WNW 20.7 mph 26.5 mph N/A Snow Light Snow
10:53 PM 8.6 °F -11.4 °F -0.4 °F 67% 29.77 in 2.5 mi WNW 21.9 mph 28.8 mph N/A Snow Light Snow
11:14 PM 6.8 °F -12.9 °F -0.4 °F 72% 29.77 in 2.5 mi WNW 19.6 mph 25.3 mph N/A Snow Light Snow
11:33 PM 6.8 °F -11.8 °F -0.4 °F 72% 29.78 in 2.5 mi WNW 17.3 mph 26.5 mph N/A Snow Light Snow
11:54 PM 6.8 °F -12.4 °F -2.2 °F 67% 29.80 in 2.0 mi WNW 18.4 mph 28.8 mph N/A   Haze